sensor_id;sensor_type;location;lat;lon;timestamp;P1;durP1;ratioP1;P2;durP2;ratioP2
69795;SDS011;57073;45.650;9.612;2022-09-01T00:01:11;3.00;;;2.55;;
69795;SDS011;57073;45.650;9.612;2022-09-01T00:03:18;2.78;;;2.40;;
69795;SDS011;57073;45.650;9.612;2022-09-01T00:05:18;3.03;;;2.30;;
69795;SDS011;57073;45.650;9.612;2022-09-01T00:07:19;3.33;;;2.50;;
69795;SDS011;57073;45.650;9.612;2022-09-01T00:09:21;2.30;;;2.10;;
69795;SDS011;57073;45.650;9.612;2022-09-01T00:11:22;3.42;;;2.58;;
69795;SDS011;57073;45.650;9.612;2022-09-01T00:13:23;4.05;;;2.40;;
69795;SDS011;57073;45.650;9.612;2022-09-01T00:15:23;3.80;;;2.70;;
69795;SDS011;57073;45.650;9.612;2022-09-01T00:17:23;3.67;;;2.60;;
69795;SDS011;57073;45.650;9.612;2022-09-01T00:19:24;3.47;;;2.67;;
69795;SDS011;57073;45.650;9.612;2022-09-01T00:21:27;5.10;;;2.53;;
69795;SDS011;57073;45.650;9.612;2022-09-01T00:23:36;3.54;;;2.36;;
69795;SDS011;57073;45.650;9.612;2022-09-01T00:25:37;3.17;;;2.30;;
69795;SDS011;57073;45.650;9.612;2022-09-01T00:27:37;2.80;;;2.20;;
69795;SDS011;57073;45.650;9.612;2022-09-01T00:29:37;2.53;;;2.00;;
69795;SDS011;57073;45.650;9.612;2022-09-01T00:31:38;3.27;;;1.87;;
69795;SDS011;57073;45.650;9.612;2022-09-01T00:33:38;2.10;;;1.90;;
69795;SDS011;57073;45.650;9.612;2022-09-01T00:35:38;5.37;;;2.03;;
69795;SDS011;57073;45.650;9.612;2022-09-01T00:37:39;4.13;;;2.00;;
69795;SDS011;57073;45.650;9.612;2022-09-01T00:39:39;3.13;;;1.90;;
69795;SDS011;57073;45.650;9.612;2022-09-01T00:41:39;2.00;;;1.80;;
69795;SDS011;57073;45.650;9.612;2022-09-01T00:43:49;3.20;;;2.30;;
69795;SDS011;57073;45.650;9.612;2022-09-01T00:45:50;2.30;;;2.10;;
69795;SDS011;57073;45.650;9.612;2022-09-01T00:47:51;6.97;;;2.33;;
69795;SDS011;57073;45.650;9.612;2022-09-01T00:49:51;2.80;;;2.13;;
69795;SDS011;57073;45.650;9.612;2022-09-01T00:51:58;3.58;;;2.00;;
69795;SDS011;57073;45.650;9.612;2022-09-01T00:53:59;2.65;;;1.77;;
69795;SDS011;57073;45.650;9.612;2022-09-01T00:56:00;2.95;;;2.05;;
69795;SDS011;57073;45.650;9.612;2022-09-01T00:58:00;2.20;;;2.00;;
69795;SDS011;57073;45.650;9.612;2022-09-01T01:00:13;2.80;;;2.10;;
69795;SDS011;57073;45.650;9.612;2022-09-01T01:02:14;2.25;;;1.80;;
69795;SDS011;57073;45.650;9.612;2022-09-01T01:04:14;4.20;;;2.17;;
69795;SDS011;57073;45.650;9.612;2022-09-01T01:06:15;3.73;;;2.33;;
69795;SDS011;57073;45.650;9.612;2022-09-01T01:08:15;2.38;;;2.17;;
69795;SDS011;57073;45.650;9.612;2022-09-01T01:10:17;3.88;;;2.22;;
69795;SDS011;57073;45.650;9.612;2022-09-01T01:12:18;3.10;;;2.20;;
69795;SDS011;57073;45.650;9.612;2022-09-01T01:14:18;3.07;;;2.40;;
69795;SDS011;57073;45.650;9.612;2022-09-01T01:16:19;2.97;;;2.40;;
69795;SDS011;57073;45.650;9.612;2022-09-01T01:18:19;4.90;;;2.17;;
69795;SDS011;57073;45.650;9.612;2022-09-01T01:20:20;2.53;;;2.00;;
69795;SDS011;57073;45.650;9.612;2022-09-01T01:25:01;3.87;;;2.07;;
69795;SDS011;57073;45.650;9.612;2022-09-01T01:27:02;3.40;;;2.33;;
69795;SDS011;57073;45.650;9.612;2022-09-01T01:29:04;3.27;;;2.20;;
69795;SDS011;57073;45.650;9.612;2022-09-01T01:31:10;5.15;;;2.15;;
69795;SDS011;57073;45.650;9.612;2022-09-01T01:33:11;2.53;;;2.05;;
69795;SDS011;57073;45.650;9.612;2022-09-01T01:35:13;3.17;;;1.97;;
69795;SDS011;57073;45.650;9.612;2022-09-01T01:37:14;3.03;;;1.70;;
69795;SDS011;57073;45.650;9.612;2022-09-01T01:39:16;3.13;;;2.20;;
69795;SDS011;57073;45.650;9.612;2022-09-01T01:41:17;2.60;;;2.08;;
69795;SDS011;57073;45.650;9.612;2022-09-01T01:43:18;3.63;;;2.03;;
69795;SDS011;57073;45.650;9.612;2022-09-01T01:45:21;2.43;;;2.00;;
69795;SDS011;57073;45.650;9.612;2022-09-01T01:47:22;2.35;;;2.00;;
69795;SDS011;57073;45.650;9.612;2022-09-01T01:49:24;2.30;;;1.90;;
69795;SDS011;57073;45.650;9.612;2022-09-01T01:51:25;2.58;;;1.90;;
69795;SDS011;57073;45.650;9.612;2022-09-01T01:53:27;3.17;;;2.17;;
69795;SDS011;57073;45.650;9.612;2022-09-01T01:55:28;2.53;;;1.90;;
69795;SDS011;57073;45.650;9.612;2022-09-01T01:57:29;2.67;;;1.90;;
69795;SDS011;57073;45.650;9.612;2022-09-01T01:59:31;4.47;;;2.10;;
69795;SDS011;57073;45.650;9.612;2022-09-01T02:01:32;3.25;;;2.13;;
69795;SDS011;57073;45.650;9.612;2022-09-01T02:03:33;2.80;;;2.20;;
69795;SDS011;57073;45.650;9.612;2022-09-01T02:05:37;2.17;;;1.90;;
69795;SDS011;57073;45.650;9.612;2022-09-01T02:07:38;3.03;;;2.10;;
69795;SDS011;57073;45.650;9.612;2022-09-01T02:09:39;2.42;;;1.90;;
69795;SDS011;57073;45.650;9.612;2022-09-01T02:11:40;3.45;;;2.10;;
69795;SDS011;57073;45.650;9.612;2022-09-01T02:13:40;2.50;;;1.60;;
69795;SDS011;57073;45.650;9.612;2022-09-01T02:15:47;3.20;;;1.70;;
69795;SDS011;57073;45.650;9.612;2022-09-01T02:17:48;4.10;;;1.70;;
69795;SDS011;57073;45.650;9.612;2022-09-01T02:19:48;2.17;;;1.70;;
69795;SDS011;57073;45.650;9.612;2022-09-01T02:21:48;2.57;;;1.90;;
69795;SDS011;57073;45.650;9.612;2022-09-01T02:23:54;2.70;;;1.48;;
69795;SDS011;57073;45.650;9.612;2022-09-01T02:25:59;2.65;;;1.70;;
69795;SDS011;57073;45.650;9.612;2022-09-01T02:28:01;3.85;;;1.60;;
69795;SDS011;57073;45.650;9.612;2022-09-01T02:30:03;3.07;;;1.73;;
69795;SDS011;57073;45.650;9.612;2022-09-01T02:32:05;3.28;;;1.67;;
69795;SDS011;57073;45.650;9.612;2022-09-01T02:34:06;2.87;;;1.83;;
69795;SDS011;57073;45.650;9.612;2022-09-01T02:36:14;2.72;;;1.83;;
69795;SDS011;57073;45.650;9.612;2022-09-01T02:38:15;2.40;;;1.95;;
69795;SDS011;57073;45.650;9.612;2022-09-01T02:40:16;3.03;;;1.83;;
69795;SDS011;57073;45.650;9.612;2022-09-01T02:42:17;3.40;;;1.90;;
69795;SDS011;57073;45.650;9.612;2022-09-01T02:44:19;3.42;;;2.00;;
69795;SDS011;57073;45.650;9.612;2022-09-01T02:46:20;2.55;;;1.70;;
69795;SDS011;57073;45.650;9.612;2022-09-01T02:48:27;3.22;;;1.80;;
69795;SDS011;57073;45.650;9.612;2022-09-01T02:50:38;4.70;;;1.87;;
69795;SDS011;57073;45.650;9.612;2022-09-01T02:52:40;2.70;;;1.80;;
69795;SDS011;57073;45.650;9.612;2022-09-01T02:54:40;2.38;;;1.55;;
69795;SDS011;57073;45.650;9.612;2022-09-01T02:56:43;2.22;;;1.65;;
69795;SDS011;57073;45.650;9.612;2022-09-01T02:58:47;4.30;;;1.90;;
69795;SDS011;57073;45.650;9.612;2022-09-01T03:00:51;2.33;;;1.60;;
69795;SDS011;57073;45.650;9.612;2022-09-01T03:02:51;3.65;;;1.70;;
69795;SDS011;57073;45.650;9.612;2022-09-01T03:04:51;2.37;;;1.60;;
69795;SDS011;57073;45.650;9.612;2022-09-01T03:06:55;2.80;;;1.90;;
69795;SDS011;57073;45.650;9.612;2022-09-01T03:08:57;2.67;;;1.55;;
69795;SDS011;57073;45.650;9.612;2022-09-01T03:11:00;3.08;;;1.50;;
69795;SDS011;57073;45.650;9.612;2022-09-01T03:13:02;1.90;;;1.30;;
69795;SDS011;57073;45.650;9.612;2022-09-01T03:15:03;2.42;;;1.52;;
69795;SDS011;57073;45.650;9.612;2022-09-01T03:17:03;2.73;;;1.60;;
69795;SDS011;57073;45.650;9.612;2022-09-01T03:19:04;1.90;;;1.60;;
69795;SDS011;57073;45.650;9.612;2022-09-01T03:21:08;3.00;;;1.63;;
69795;SDS011;57073;45.650;9.612;2022-09-01T03:23:09;3.07;;;1.60;;
69795;SDS011;57073;45.650;9.612;2022-09-01T03:25:12;2.78;;;1.52;;
69795;SDS011;57073;45.650;9.612;2022-09-01T03:27:12;2.38;;;1.50;;
69795;SDS011;57073;45.650;9.612;2022-09-01T03:29:12;3.20;;;1.60;;
69795;SDS011;57073;45.650;9.612;2022-09-01T03:31:13;2.37;;;1.73;;
69795;SDS011;57073;45.650;9.612;2022-09-01T03:33:13;2.70;;;1.52;;
69795;SDS011;57073;45.650;9.612;2022-09-01T03:35:16;1.70;;;1.60;;
69795;SDS011;57073;45.650;9.612;2022-09-01T03:37:16;2.17;;;1.50;;
69795;SDS011;57073;45.650;9.612;2022-09-01T03:39:18;1.80;;;1.50;;
69795;SDS011;57073;45.650;9.612;2022-09-01T03:41:23;1.60;;;1.50;;
69795;SDS011;57073;45.650;9.612;2022-09-01T03:43:24;3.08;;;1.80;;
69795;SDS011;57073;45.650;9.612;2022-09-01T03:45:26;2.30;;;2.10;;
69795;SDS011;57073;45.650;9.612;2022-09-01T03:47:28;2.90;;;1.95;;
69795;SDS011;57073;45.650;9.612;2022-09-01T03:49:28;2.70;;;1.90;;
69795;SDS011;57073;45.650;9.612;2022-09-01T03:51:28;2.57;;;2.20;;
69795;SDS011;57073;45.650;9.612;2022-09-01T03:53:31;2.80;;;2.30;;
69795;SDS011;57073;45.650;9.612;2022-09-01T03:55:33;2.90;;;2.22;;
69795;SDS011;57073;45.650;9.612;2022-09-01T03:57:34;4.22;;;2.35;;
69795;SDS011;57073;45.650;9.612;2022-09-01T03:59:36;3.65;;;2.20;;
69795;SDS011;57073;45.650;9.612;2022-09-01T04:01:44;3.38;;;2.35;;
69795;SDS011;57073;45.650;9.612;2022-09-01T04:03:44;3.30;;;2.30;;
69795;SDS011;57073;45.650;9.612;2022-09-01T04:05:46;3.88;;;2.50;;
69795;SDS011;57073;45.650;9.612;2022-09-01T04:07:47;2.97;;;2.53;;
69795;SDS011;57073;45.650;9.612;2022-09-01T04:09:47;2.90;;;2.40;;
69795;SDS011;57073;45.650;9.612;2022-09-01T04:11:48;2.83;;;2.00;;
69795;SDS011;57073;45.650;9.612;2022-09-01T04:13:49;2.80;;;2.10;;
69795;SDS011;57073;45.650;9.612;2022-09-01T04:15:50;3.40;;;2.20;;
69795;SDS011;57073;45.650;9.612;2022-09-01T04:17:50;3.30;;;2.30;;
69795;SDS011;57073;45.650;9.612;2022-09-01T04:20:09;3.63;;;2.38;;
69795;SDS011;57073;45.650;9.612;2022-09-01T04:22:10;4.10;;;2.57;;
69795;SDS011;57073;45.650;9.612;2022-09-01T04:24:13;2.60;;;2.40;;
69795;SDS011;57073;45.650;9.612;2022-09-01T04:26:14;3.83;;;2.58;;
69795;SDS011;57073;45.650;9.612;2022-09-01T04:28:19;4.53;;;2.63;;
69795;SDS011;57073;45.650;9.612;2022-09-01T04:30:23;4.20;;;2.58;;
69795;SDS011;57073;45.650;9.612;2022-09-01T04:32:25;2.70;;;2.20;;
69795;SDS011;57073;45.650;9.612;2022-09-01T04:34:26;3.67;;;2.73;;
69795;SDS011;57073;45.650;9.612;2022-09-01T04:36:28;3.30;;;2.83;;
69795;SDS011;57073;45.650;9.612;2022-09-01T04:38:30;4.32;;;2.67;;
69795;SDS011;57073;45.650;9.612;2022-09-01T04:40:37;3.40;;;2.60;;
69795;SDS011;57073;45.650;9.612;2022-09-01T04:42:38;4.35;;;2.80;;
69795;SDS011;57073;45.650;9.612;2022-09-01T04:44:38;5.00;;;2.60;;
69795;SDS011;57073;45.650;9.612;2022-09-01T04:46:40;5.00;;;2.67;;
69795;SDS011;57073;45.650;9.612;2022-09-01T04:48:45;3.70;;;2.50;;
69795;SDS011;57073;45.650;9.612;2022-09-01T04:50:47;3.50;;;2.55;;
69795;SDS011;57073;45.650;9.612;2022-09-01T04:52:48;4.43;;;2.50;;
69795;SDS011;57073;45.650;9.612;2022-09-01T04:54:50;3.30;;;2.72;;
69795;SDS011;57073;45.650;9.612;2022-09-01T04:56:50;3.27;;;2.20;;
69795;SDS011;57073;45.650;9.612;2022-09-01T04:58:51;3.58;;;2.50;;
69795;SDS011;57073;45.650;9.612;2022-09-01T05:00:54;4.07;;;2.53;;
69795;SDS011;57073;45.650;9.612;2022-09-01T05:02:56;3.83;;;2.40;;
69795;SDS011;57073;45.650;9.612;2022-09-01T05:05:02;3.30;;;2.33;;
69795;SDS011;57073;45.650;9.612;2022-09-01T05:07:03;3.60;;;2.58;;
69795;SDS011;57073;45.650;9.612;2022-09-01T05:09:04;5.83;;;2.50;;
69795;SDS011;57073;45.650;9.612;2022-09-01T05:11:04;3.78;;;1.98;;
69795;SDS011;57073;45.650;9.612;2022-09-01T05:13:07;3.20;;;2.40;;
69795;SDS011;57073;45.650;9.612;2022-09-01T05:15:08;3.10;;;2.20;;
69795;SDS011;57073;45.650;9.612;2022-09-01T05:17:10;4.50;;;2.35;;
69795;SDS011;57073;45.650;9.612;2022-09-01T05:19:11;3.00;;;2.43;;
69795;SDS011;57073;45.650;9.612;2022-09-01T05:21:14;3.83;;;2.63;;
69795;SDS011;57073;45.650;9.612;2022-09-01T05:23:15;8.05;;;2.40;;
69795;SDS011;57073;45.650;9.612;2022-09-01T05:25:18;4.68;;;2.70;;
69795;SDS011;57073;45.650;9.612;2022-09-01T05:27:18;4.27;;;2.70;;
69795;SDS011;57073;45.650;9.612;2022-09-01T05:29:19;5.38;;;2.60;;
69795;SDS011;57073;45.650;9.612;2022-09-01T05:31:23;3.50;;;2.70;;
69795;SDS011;57073;45.650;9.612;2022-09-01T05:33:23;5.32;;;2.60;;
69795;SDS011;57073;45.650;9.612;2022-09-01T05:35:23;4.80;;;3.13;;
69795;SDS011;57073;45.650;9.612;2022-09-01T05:37:26;4.63;;;2.88;;
69795;SDS011;57073;45.650;9.612;2022-09-01T05:39:28;6.43;;;3.20;;
69795;SDS011;57073;45.650;9.612;2022-09-01T05:41:29;3.27;;;2.53;;
69795;SDS011;57073;45.650;9.612;2022-09-01T05:43:29;5.25;;;3.00;;
69795;SDS011;57073;45.650;9.612;2022-09-01T05:45:30;5.53;;;3.07;;
69795;SDS011;57073;45.650;9.612;2022-09-01T05:47:31;3.43;;;3.10;;
69795;SDS011;57073;45.650;9.612;2022-09-01T05:49:33;6.60;;;2.90;;
69795;SDS011;57073;45.650;9.612;2022-09-01T05:51:33;4.87;;;2.90;;
69795;SDS011;57073;45.650;9.612;2022-09-01T05:53:35;6.97;;;2.80;;
69795;SDS011;57073;45.650;9.612;2022-09-01T05:55:37;6.10;;;2.72;;
69795;SDS011;57073;45.650;9.612;2022-09-01T05:57:37;4.60;;;2.53;;
69795;SDS011;57073;45.650;9.612;2022-09-01T05:59:39;4.63;;;2.60;;
69795;SDS011;57073;45.650;9.612;2022-09-01T06:01:40;4.22;;;2.50;;
69795;SDS011;57073;45.650;9.612;2022-09-01T06:03:40;4.05;;;2.85;;
69795;SDS011;57073;45.650;9.612;2022-09-01T06:05:43;5.60;;;2.50;;
69795;SDS011;57073;45.650;9.612;2022-09-01T06:07:47;4.35;;;2.80;;
69795;SDS011;57073;45.650;9.612;2022-09-01T06:09:48;5.53;;;2.63;;
69795;SDS011;57073;45.650;9.612;2022-09-01T06:11:48;2.70;;;2.37;;
69795;SDS011;57073;45.650;9.612;2022-09-01T06:13:49;5.07;;;2.83;;
69795;SDS011;57073;45.650;9.612;2022-09-01T06:15:51;3.90;;;2.80;;
69795;SDS011;57073;45.650;9.612;2022-09-01T06:17:57;6.03;;;3.20;;
69795;SDS011;57073;45.650;9.612;2022-09-01T06:19:57;6.80;;;3.07;;
69795;SDS011;57073;45.650;9.612;2022-09-01T06:21:58;4.40;;;2.90;;
69795;SDS011;57073;45.650;9.612;2022-09-01T06:23:58;4.83;;;3.10;;
69795;SDS011;57073;45.650;9.612;2022-09-01T06:25:59;8.73;;;3.10;;
69795;SDS011;57073;45.650;9.612;2022-09-01T06:27:59;3.42;;;2.72;;
69795;SDS011;57073;45.650;9.612;2022-09-01T06:30:04;6.82;;;3.13;;
69795;SDS011;57073;45.650;9.612;2022-09-01T06:32:13;3.47;;;2.40;;
69795;SDS011;57073;45.650;9.612;2022-09-01T06:34:14;5.85;;;3.20;;
69795;SDS011;57073;45.650;9.612;2022-09-01T06:36:17;6.80;;;3.63;;
69795;SDS011;57073;45.650;9.612;2022-09-01T06:38:20;6.97;;;3.30;;
69795;SDS011;57073;45.650;9.612;2022-09-01T06:40:21;5.50;;;3.30;;
69795;SDS011;57073;45.650;9.612;2022-09-01T06:42:24;5.40;;;3.00;;
69795;SDS011;57073;45.650;9.612;2022-09-01T06:44:25;6.47;;;2.95;;
69795;SDS011;57073;45.650;9.612;2022-09-01T06:46:25;3.80;;;2.90;;
69795;SDS011;57073;45.650;9.612;2022-09-01T06:48:28;3.95;;;2.72;;
69795;SDS011;57073;45.650;9.612;2022-09-01T06:50:29;4.10;;;2.75;;
69795;SDS011;57073;45.650;9.612;2022-09-01T06:52:30;5.23;;;2.93;;
69795;SDS011;57073;45.650;9.612;2022-09-01T06:54:30;4.07;;;2.60;;
69795;SDS011;57073;45.650;9.612;2022-09-01T06:56:33;4.30;;;2.92;;
69795;SDS011;57073;45.650;9.612;2022-09-01T06:58:33;3.63;;;2.63;;
69795;SDS011;57073;45.650;9.612;2022-09-01T07:00:37;4.70;;;2.70;;
69795;SDS011;57073;45.650;9.612;2022-09-01T07:02:41;5.97;;;2.78;;
69795;SDS011;57073;45.650;9.612;2022-09-01T07:04:42;4.07;;;2.65;;
69795;SDS011;57073;45.650;9.612;2022-09-01T07:06:43;4.15;;;2.78;;
69795;SDS011;57073;45.650;9.612;2022-09-01T07:08:45;3.07;;;2.60;;
69795;SDS011;57073;45.650;9.612;2022-09-01T07:10:49;3.70;;;2.88;;
69795;SDS011;57073;45.650;9.612;2022-09-01T07:12:50;5.13;;;2.90;;
69795;SDS011;57073;45.650;9.612;2022-09-01T07:14:50;3.35;;;2.63;;
69795;SDS011;57073;45.650;9.612;2022-09-01T07:16:51;4.73;;;3.27;;
69795;SDS011;57073;45.650;9.612;2022-09-01T07:18:52;3.53;;;3.17;;
69795;SDS011;57073;45.650;9.612;2022-09-01T07:20:55;7.35;;;3.80;;
69795;SDS011;57073;45.650;9.612;2022-09-01T07:22:56;5.57;;;3.70;;
69795;SDS011;57073;45.650;9.612;2022-09-01T07:24:57;5.05;;;3.53;;
69795;SDS011;57073;45.650;9.612;2022-09-01T07:26:57;6.47;;;3.90;;
69795;SDS011;57073;45.650;9.612;2022-09-01T07:28:57;6.70;;;4.10;;
69795;SDS011;57073;45.650;9.612;2022-09-01T07:30:57;5.10;;;3.60;;
69795;SDS011;57073;45.650;9.612;2022-09-01T07:32:58;8.73;;;4.00;;
69795;SDS011;57073;45.650;9.612;2022-09-01T07:34:58;5.40;;;3.77;;
69795;SDS011;57073;45.650;9.612;2022-09-01T07:36:59;5.57;;;4.30;;
69795;SDS011;57073;45.650;9.612;2022-09-01T07:38:59;9.77;;;4.03;;
69795;SDS011;57073;45.650;9.612;2022-09-01T07:41:00;6.63;;;3.88;;
69795;SDS011;57073;45.650;9.612;2022-09-01T07:43:00;9.17;;;3.90;;
69795;SDS011;57073;45.650;9.612;2022-09-01T07:45:08;6.13;;;4.45;;
69795;SDS011;57073;45.650;9.612;2022-09-01T07:47:09;5.67;;;3.97;;
69795;SDS011;57073;45.650;9.612;2022-09-01T07:49:09;5.07;;;4.00;;
69795;SDS011;57073;45.650;9.612;2022-09-01T07:51:11;6.00;;;4.00;;
69795;SDS011;57073;45.650;9.612;2022-09-01T07:53:20;4.88;;;4.13;;
69795;SDS011;57073;45.650;9.612;2022-09-01T07:55:21;4.78;;;3.70;;
69795;SDS011;57073;45.650;9.612;2022-09-01T07:57:21;6.23;;;4.10;;
69795;SDS011;57073;45.650;9.612;2022-09-01T07:59:22;4.40;;;3.70;;
69795;SDS011;57073;45.650;9.612;2022-09-01T08:01:24;4.47;;;3.73;;
69795;SDS011;57073;45.650;9.612;2022-09-01T08:03:24;8.27;;;3.88;;
69795;SDS011;57073;45.650;9.612;2022-09-01T08:05:24;4.57;;;3.57;;
69795;SDS011;57073;45.650;9.612;2022-09-01T08:07:26;5.47;;;3.45;;
69795;SDS011;57073;45.650;9.612;2022-09-01T08:09:26;4.57;;;2.90;;
69795;SDS011;57073;45.650;9.612;2022-09-01T08:11:27;3.47;;;2.60;;
69795;SDS011;57073;45.650;9.612;2022-09-01T08:13:28;7.20;;;2.80;;
69795;SDS011;57073;45.650;9.612;2022-09-01T08:15:28;3.33;;;2.60;;
69795;SDS011;57073;45.650;9.612;2022-09-01T08:17:28;6.53;;;3.10;;
69795;SDS011;57073;45.650;9.612;2022-09-01T08:19:29;4.20;;;2.87;;
69795;SDS011;57073;45.650;9.612;2022-09-01T08:21:29;4.93;;;3.63;;
69795;SDS011;57073;45.650;9.612;2022-09-01T08:23:30;5.20;;;4.13;;
69795;SDS011;57073;45.650;9.612;2022-09-01T08:25:30;4.10;;;3.50;;
69795;SDS011;57073;45.650;9.612;2022-09-01T08:27:31;5.53;;;4.00;;
69795;SDS011;57073;45.650;9.612;2022-09-01T08:29:32;5.07;;;4.05;;
69795;SDS011;57073;45.650;9.612;2022-09-01T08:31:32;5.10;;;4.00;;
69795;SDS011;57073;45.650;9.612;2022-09-01T08:33:34;5.47;;;4.00;;
69795;SDS011;57073;45.650;9.612;2022-09-01T08:35:35;4.63;;;3.80;;
69795;SDS011;57073;45.650;9.612;2022-09-01T08:37:37;6.72;;;3.95;;
69795;SDS011;57073;45.650;9.612;2022-09-01T08:39:37;6.35;;;4.32;;
69795;SDS011;57073;45.650;9.612;2022-09-01T08:45:48;7.38;;;4.70;;
69795;SDS011;57073;45.650;9.612;2022-09-01T08:47:56;6.57;;;5.00;;
69795;SDS011;57073;45.650;9.612;2022-09-01T08:49:59;6.60;;;4.65;;
69795;SDS011;57073;45.650;9.612;2022-09-01T08:52:01;6.23;;;4.30;;
69795;SDS011;57073;45.650;9.612;2022-09-01T08:56:05;6.77;;;5.10;;
69795;SDS011;57073;45.650;9.612;2022-09-01T08:58:09;8.75;;;5.28;;
69795;SDS011;57073;45.650;9.612;2022-09-01T09:00:12;8.48;;;5.65;;
69795;SDS011;57073;45.650;9.612;2022-09-01T09:10:55;7.30;;;5.47;;
69795;SDS011;57073;45.650;9.612;2022-09-01T09:15:04;6.83;;;4.87;;
69795;SDS011;57073;45.650;9.612;2022-09-01T09:17:06;8.52;;;5.40;;
69795;SDS011;57073;45.650;9.612;2022-09-01T09:19:10;8.30;;;5.78;;
69795;SDS011;57073;45.650;9.612;2022-09-01T09:21:33;9.70;;;6.10;;
69795;SDS011;57073;45.650;9.612;2022-09-01T09:23:34;6.57;;;5.88;;
69795;SDS011;57073;45.650;9.612;2022-09-01T09:25:35;7.35;;;5.88;;
69795;SDS011;57073;45.650;9.612;2022-09-01T09:27:37;7.53;;;6.13;;
69795;SDS011;57073;45.650;9.612;2022-09-01T09:29:37;9.15;;;6.05;;
69795;SDS011;57073;45.650;9.612;2022-09-01T09:31:39;7.93;;;6.33;;
69795;SDS011;57073;45.650;9.612;2022-09-01T09:33:44;8.60;;;6.25;;
69795;SDS011;57073;45.650;9.612;2022-09-01T09:35:45;9.80;;;6.97;;
69795;SDS011;57073;45.650;9.612;2022-09-01T09:37:45;9.67;;;7.17;;
69795;SDS011;57073;45.650;9.612;2022-09-01T09:42:11;8.47;;;6.77;;
69795;SDS011;57073;45.650;9.612;2022-09-01T09:46:19;8.27;;;6.43;;
69795;SDS011;57073;45.650;9.612;2022-09-01T09:48:28;8.48;;;6.93;;
69795;SDS011;57073;45.650;9.612;2022-09-01T09:50:29;9.23;;;7.57;;
69795;SDS011;57073;45.650;9.612;2022-09-01T09:52:30;8.73;;;7.43;;
69795;SDS011;57073;45.650;9.612;2022-09-01T09:54:31;10.03;;;7.77;;
69795;SDS011;57073;45.650;9.612;2022-09-01T09:56:32;10.68;;;7.38;;
69795;SDS011;57073;45.650;9.612;2022-09-01T09:58:34;9.97;;;7.43;;
69795;SDS011;57073;45.650;9.612;2022-09-01T10:00:35;12.87;;;8.47;;
69795;SDS011;57073;45.650;9.612;2022-09-01T10:02:39;10.23;;;8.43;;
69795;SDS011;57073;45.650;9.612;2022-09-01T10:04:39;12.67;;;8.70;;
69795;SDS011;57073;45.650;9.612;2022-09-01T10:06:41;12.85;;;9.50;;
69795;SDS011;57073;45.650;9.612;2022-09-01T10:08:44;10.53;;;8.37;;
69795;SDS011;57073;45.650;9.612;2022-09-01T10:10:48;12.55;;;9.48;;
69795;SDS011;57073;45.650;9.612;2022-09-01T10:12:48;13.23;;;9.63;;
69795;SDS011;57073;45.650;9.612;2022-09-01T10:15:05;14.60;;;11.93;;
69795;SDS011;57073;45.650;9.612;2022-09-01T10:17:47;13.23;;;10.30;;
69795;SDS011;57073;45.650;9.612;2022-09-01T10:19:31;16.13;;;11.50;;
69795;SDS011;57073;45.650;9.612;2022-09-01T10:21:33;14.07;;;11.35;;
69795;SDS011;57073;45.650;9.612;2022-09-01T10:23:35;15.65;;;12.00;;
69795;SDS011;57073;45.650;9.612;2022-09-01T10:25:36;11.57;;;9.98;;
69795;SDS011;57073;45.650;9.612;2022-09-01T10:27:39;17.70;;;12.25;;
69795;SDS011;57073;45.650;9.612;2022-09-01T10:29:42;14.47;;;12.90;;
69795;SDS011;57073;45.650;9.612;2022-09-01T10:31:45;19.15;;;13.45;;
69795;SDS011;57073;45.650;9.612;2022-09-01T10:33:45;15.30;;;12.67;;
69795;SDS011;57073;45.650;9.612;2022-09-01T10:35:49;14.50;;;11.82;;
69795;SDS011;57073;45.650;9.612;2022-09-01T10:37:50;14.88;;;11.50;;
69795;SDS011;57073;45.650;9.612;2022-09-01T10:42:15;14.02;;;10.55;;
69795;SDS011;57073;45.650;9.612;2022-09-01T10:44:18;12.98;;;10.55;;
69795;SDS011;57073;45.650;9.612;2022-09-01T10:48:27;10.43;;;8.60;;
69795;SDS011;57073;45.650;9.612;2022-09-01T10:50:29;12.80;;;10.48;;
69795;SDS011;57073;45.650;9.612;2022-09-01T10:53:13;14.00;;;10.93;;
69795;SDS011;57073;45.650;9.612;2022-09-01T10:54:55;15.32;;;10.95;;
69795;SDS011;57073;45.650;9.612;2022-09-01T10:56:57;13.03;;;9.30;;
69795;SDS011;57073;45.650;9.612;2022-09-01T11:03:49;10.70;;;9.10;;
69795;SDS011;57073;45.650;9.612;2022-09-01T11:07:57;12.83;;;10.13;;
69795;SDS011;57073;45.650;9.612;2022-09-01T11:12:13;11.20;;;8.93;;
69795;SDS011;57073;45.650;9.612;2022-09-01T11:14:25;9.52;;;7.32;;
69795;SDS011;57073;45.650;9.612;2022-09-01T11:16:35;10.13;;;8.32;;
69795;SDS011;57073;45.650;9.612;2022-09-01T11:18:36;10.63;;;8.68;;
69795;SDS011;57073;45.650;9.612;2022-09-01T11:20:40;10.20;;;8.13;;
69795;SDS011;57073;45.650;9.612;2022-09-01T11:26:44;12.80;;;8.90;;
69795;SDS011;57073;45.650;9.612;2022-09-01T11:28:45;11.50;;;9.73;;
69795;SDS011;57073;45.650;9.612;2022-09-01T11:30:58;11.10;;;9.30;;
69795;SDS011;57073;45.650;9.612;2022-09-01T11:35:06;9.63;;;7.40;;
69795;SDS011;57073;45.650;9.612;2022-09-01T11:37:14;9.40;;;7.90;;
69795;SDS011;57073;45.650;9.612;2022-09-01T11:41:21;9.65;;;7.68;;
69795;SDS011;57073;45.650;9.612;2022-09-01T11:43:23;11.68;;;8.25;;
69795;SDS011;57073;45.650;9.612;2022-09-01T11:45:26;7.97;;;6.00;;
69795;SDS011;57073;45.650;9.612;2022-09-01T11:47:30;9.20;;;7.80;;
69795;SDS011;57073;45.650;9.612;2022-09-01T11:49:32;9.10;;;7.68;;
69795;SDS011;57073;45.650;9.612;2022-09-01T11:51:45;7.53;;;6.35;;
69795;SDS011;57073;45.650;9.612;2022-09-01T11:53:46;10.48;;;7.07;;
69795;SDS011;57073;45.650;9.612;2022-09-01T11:55:47;10.00;;;7.00;;
69795;SDS011;57073;45.650;9.612;2022-09-01T11:57:48;11.00;;;7.70;;
69795;SDS011;57073;45.650;9.612;2022-09-01T11:59:49;9.90;;;8.20;;
69795;SDS011;57073;45.650;9.612;2022-09-01T12:01:55;10.47;;;8.13;;
69795;SDS011;57073;45.650;9.612;2022-09-01T12:03:56;10.63;;;7.30;;
69795;SDS011;57073;45.650;9.612;2022-09-01T12:05:58;9.00;;;6.78;;
69795;SDS011;57073;45.650;9.612;2022-09-01T12:08:01;8.15;;;6.57;;
69795;SDS011;57073;45.650;9.612;2022-09-01T12:10:02;7.05;;;5.82;;
69795;SDS011;57073;45.650;9.612;2022-09-01T12:12:03;7.17;;;5.07;;
69795;SDS011;57073;45.650;9.612;2022-09-01T12:14:08;6.35;;;4.80;;
69795;SDS011;57073;45.650;9.612;2022-09-01T12:16:09;6.05;;;5.05;;
69795;SDS011;57073;45.650;9.612;2022-09-01T12:18:24;9.10;;;5.27;;
69795;SDS011;57073;45.650;9.612;2022-09-01T12:20:28;5.97;;;4.50;;
69795;SDS011;57073;45.650;9.612;2022-09-01T12:22:29;4.85;;;4.30;;
69795;SDS011;57073;45.650;9.612;2022-09-01T12:24:31;5.60;;;4.30;;
69795;SDS011;57073;45.650;9.612;2022-09-01T12:26:32;4.90;;;3.60;;
69795;SDS011;57073;45.650;9.612;2022-09-01T12:28:33;4.57;;;3.80;;
69795;SDS011;57073;45.650;9.612;2022-09-01T12:30:34;7.40;;;4.30;;
69795;SDS011;57073;45.650;9.612;2022-09-01T12:32:38;5.30;;;4.10;;
69795;SDS011;57073;45.650;9.612;2022-09-01T12:34:40;4.60;;;4.20;;
69795;SDS011;57073;45.650;9.612;2022-09-01T12:36:41;7.03;;;4.07;;
69795;SDS011;57073;45.650;9.612;2022-09-01T12:38:41;4.37;;;3.50;;
69795;SDS011;57073;45.650;9.612;2022-09-01T12:40:41;4.30;;;3.70;;
69795;SDS011;57073;45.650;9.612;2022-09-01T12:42:47;5.77;;;3.73;;
69795;SDS011;57073;45.650;9.612;2022-09-01T12:46:50;4.20;;;3.60;;
69795;SDS011;57073;45.650;9.612;2022-09-01T12:48:50;4.93;;;3.07;;
69795;SDS011;57073;45.650;9.612;2022-09-01T12:50:50;4.73;;;3.50;;
69795;SDS011;57073;45.650;9.612;2022-09-01T12:52:52;5.57;;;3.20;;
69795;SDS011;57073;45.650;9.612;2022-09-01T12:56:57;4.97;;;3.07;;
69795;SDS011;57073;45.650;9.612;2022-09-01T12:59:13;3.30;;;2.90;;
69795;SDS011;57073;45.650;9.612;2022-09-01T13:01:23;3.33;;;2.42;;
69795;SDS011;57073;45.650;9.612;2022-09-01T13:03:24;4.00;;;2.72;;
69795;SDS011;57073;45.650;9.612;2022-09-01T13:05:27;3.15;;;2.70;;